createdAt,value
2019-05-23T00:01:19.938Z,100660.77
2019-05-23T00:03:52.706Z,100666.78
2019-05-23T00:06:23.765Z,100664.81
2019-05-23T00:08:52.628Z,100663.47
2019-05-23T00:11:30.529Z,100666.40
2019-05-23T00:14:01.674Z,100661.38
2019-05-23T00:16:31.969Z,100667.92
2019-05-23T00:19:02.715Z,100659.12
2019-05-23T00:21:33.000Z,100666.30
2019-05-23T00:24:04.080Z,100662.92
2019-05-23T00:26:34.230Z,100663.92
2019-05-23T00:29:09.967Z,100659.46
2019-05-23T00:31:38.563Z,100655.97
2019-05-23T00:34:09.537Z,100661.38
2019-05-23T00:36:38.143Z,100660.97
2019-05-23T00:39:09.112Z,100652.98
2019-05-23T00:41:39.866Z,100651.53
2019-05-23T00:44:09.032Z,100646.59
2019-05-23T00:46:37.947Z,100650.27
2019-05-23T00:49:08.290Z,100652.98
2019-05-23T00:51:36.999Z,100649.97
2019-05-23T00:54:06.418Z,100650.81
2019-05-23T00:56:37.270Z,100647.10
2019-05-23T00:59:06.034Z,100653.73
2019-05-23T01:01:34.938Z,100647.70
2019-05-23T01:04:03.906Z,100645.75
2019-05-23T01:06:33.516Z,100638.88
2019-05-23T01:09:03.336Z,100647.13
2019-05-23T01:11:33.282Z,100649.36
2019-05-23T01:14:02.181Z,100645.33
2019-05-23T01:16:32.855Z,100646.68
2019-05-23T01:19:01.864Z,100642.88
2019-05-23T01:21:51.060Z,100640.25
2019-05-23T01:24:23.600Z,100641.10
2019-05-23T01:26:52.690Z,100636.00
2019-05-23T01:29:22.211Z,100634.36
2019-05-23T01:31:52.429Z,100638.45
2019-05-23T01:34:22.098Z,100635.41
2019-05-23T01:36:51.195Z,100632.66
2019-05-23T01:39:19.772Z,100629.98
2019-05-23T01:41:48.454Z,100633.59
2019-05-23T01:44:17.935Z,100633.59
2019-05-23T01:46:46.625Z,100639.50
2019-05-23T01:49:15.368Z,100639.35
2019-05-23T01:51:44.647Z,100643.13
2019-05-23T01:54:13.587Z,100639.56
2019-05-23T01:56:42.660Z,100632.98
2019-05-23T01:59:11.764Z,100631.82
2019-05-23T02:01:41.712Z,100633.12
2019-05-23T02:04:10.247Z,100629.20
2019-05-23T02:06:39.274Z,100630.15
2019-05-23T02:09:09.315Z,100629.61
2019-05-23T02:11:37.929Z,100639.11
2019-05-23T02:14:07.991Z,100630.15
2019-05-23T02:16:37.346Z,100630.13
2019-05-23T02:19:07.020Z,100634.13
2019-05-23T02:21:36.126Z,100637.97
2019-05-23T02:24:06.834Z,100643.87
2019-05-23T02:26:35.805Z,100642.81
2019-05-23T02:29:05.099Z,100641.70
2019-05-23T02:31:34.346Z,100647.11
2019-05-23T02:34:03.023Z,100644.85
2019-05-23T02:36:32.432Z,100647.23
2019-05-23T02:39:18.920Z,100637.80
2019-05-23T02:41:51.870Z,100644.41
2019-05-23T02:44:25.296Z,100643.83
2019-05-23T02:46:56.555Z,100634.64
2019-05-23T02:49:31.427Z,100636.36
2019-05-23T02:52:03.121Z,100633.63
2019-05-23T02:54:36.958Z,100630.14
2019-05-23T02:57:04.749Z,100636.76
2019-05-23T02:59:48.583Z,100639.06
2019-05-23T03:02:40.018Z,100639.53
2019-05-23T03:05:11.190Z,100629.80
2019-05-23T03:07:42.027Z,100635.70
2019-05-23T03:10:13.332Z,100633.80
2019-05-23T03:12:43.837Z,100632.00
2019-05-23T03:15:14.769Z,100633.48
2019-05-23T03:17:47.313Z,100629.63
2019-05-23T03:20:16.455Z,100632.63
2019-05-23T03:22:50.772Z,100633.45
2019-05-23T03:25:39.236Z,100634.37
2019-05-23T03:28:09.919Z,100636.30
2019-05-23T03:30:40.372Z,100637.66
2019-05-23T03:33:13.237Z,100637.16
2019-05-23T03:35:46.464Z,100634.20
2019-05-23T03:38:15.523Z,100638.61
2019-05-23T03:40:44.417Z,100635.58
2019-05-23T03:43:13.585Z,100639.05
2019-05-23T03:45:45.520Z,100635.55
2019-05-23T03:48:14.016Z,100635.03
2019-05-23T03:50:44.411Z,100637.64
2019-05-23T03:53:12.936Z,100635.73
2019-05-23T03:55:42.745Z,100633.09
2019-05-23T03:58:12.854Z,100634.67
2019-05-23T04:00:43.016Z,100642.23
2019-05-23T04:03:11.942Z,100637.02
2019-05-23T04:05:41.399Z,100633.37
2019-05-23T04:08:10.938Z,100630.34
2019-05-23T04:10:39.481Z,100635.55
2019-05-23T04:13:08.731Z,100625.81
2019-05-23T04:15:37.866Z,100637.37
2019-05-23T04:18:06.625Z,100627.17
2019-05-23T04:20:35.138Z,100635.53
2019-05-23T04:23:04.181Z,100634.66
2019-05-23T04:25:33.084Z,100628.89
2019-05-23T04:28:02.715Z,100635.69
2019-05-23T04:30:31.376Z,100625.75
2019-05-23T04:33:00.393Z,100629.73
2019-05-23T04:35:28.907Z,100633.17
2019-05-23T04:37:57.774Z,100635.61
2019-05-23T04:40:26.576Z,100632.19
2019-05-23T04:42:55.080Z,100631.46
2019-05-23T04:45:24.440Z,100631.09
2019-05-23T04:47:52.958Z,100637.50
2019-05-23T04:50:21.753Z,100634.44
2019-05-23T04:52:50.717Z,100632.59
2019-05-23T04:55:19.795Z,100636.78
2019-05-23T04:57:48.517Z,100636.26
2019-05-23T05:00:19.185Z,100637.37
2019-05-23T05:02:47.991Z,100634.53
2019-05-23T05:05:16.727Z,100638.16
2019-05-23T05:07:45.428Z,100645.45
2019-05-23T05:10:17.142Z,100652.27
2019-05-23T05:12:46.178Z,100647.37
2019-05-23T05:15:15.323Z,100646.54
2019-05-23T05:17:44.685Z,100650.03
2019-05-23T05:20:13.887Z,100642.73
2019-05-23T05:22:42.659Z,100643.59
2019-05-23T05:25:13.367Z,100640.03
2019-05-23T05:27:42.243Z,100646.28
2019-05-23T05:30:11.093Z,100643.27
2019-05-23T05:32:44.680Z,100652.19
2019-05-23T05:35:10.359Z,100647.74
2019-05-23T05:37:38.961Z,100647.92
2019-05-23T05:40:08.199Z,100646.47
2019-05-23T05:42:37.878Z,100642.93
2019-05-23T05:45:09.092Z,100646.47
2019-05-23T05:47:38.202Z,100650.43
2019-05-23T05:50:09.418Z,100644.86
2019-05-23T05:52:39.027Z,100647.29
2019-05-23T05:55:08.385Z,100649.94
2019-05-23T05:57:37.200Z,100655.16
2019-05-23T06:00:13.276Z,100645.05
2019-05-23T06:02:42.075Z,100649.93
2019-05-23T06:05:12.587Z,100650.22
2019-05-23T06:07:43.665Z,100651.17
2019-05-23T06:10:14.216Z,100649.83
2019-05-23T06:12:43.064Z,100655.47
2019-05-23T06:15:12.223Z,100651.40
2019-05-23T06:17:40.854Z,100657.37
2019-05-23T06:20:10.185Z,100655.35
2019-05-23T06:22:40.655Z,100657.65
2019-05-23T06:25:10.354Z,100659.95
2019-05-23T06:27:40.285Z,100657.06
2019-05-23T06:30:12.472Z,100659.15
2019-05-23T06:32:41.399Z,100661.95
2019-05-23T06:35:10.177Z,100665.09
2019-05-23T06:37:39.761Z,100663.64
2019-05-23T06:40:09.742Z,100666.60
2019-05-23T06:42:38.617Z,100670.42
2019-05-23T06:45:11.213Z,100672.73
2019-05-23T06:47:40.479Z,100673.36
2019-05-23T06:50:16.127Z,100678.31
2019-05-23T06:52:45.026Z,100666.47
2019-05-23T06:55:13.626Z,100673.38
2019-05-23T06:57:42.239Z,100669.49
2019-05-23T07:00:13.220Z,100667.77
2019-05-23T07:02:41.977Z,100663.08
2019-05-23T07:05:11.242Z,100671.23
2019-05-23T07:07:41.470Z,100670.33
2019-05-23T07:10:10.439Z,100667.41
2019-05-23T07:12:39.370Z,100669.69
2019-05-23T07:15:08.786Z,100666.80
2019-05-23T07:17:38.197Z,100671.59
2019-05-23T07:20:08.387Z,100674.24
2019-05-23T07:22:37.025Z,100674.71
2019-05-23T07:25:07.493Z,100671.26
2019-05-23T07:27:36.628Z,100672.59
2019-05-23T07:30:23.462Z,100675.98
2019-05-23T07:32:52.264Z,100676.69
2019-05-23T07:35:21.259Z,100671.08
2019-05-23T07:37:49.786Z,100676.23
2019-05-23T07:40:18.665Z,100675.35
2019-05-23T07:42:47.565Z,100671.67
2019-05-23T07:45:20.479Z,100675.00
2019-05-23T07:47:49.188Z,100671.00
2019-05-23T07:50:18.497Z,100671.08
2019-05-23T07:52:47.319Z,100665.02
2019-05-23T07:55:17.573Z,100670.98
2019-05-23T07:57:46.081Z,100668.58
2019-05-23T08:00:19.085Z,100664.20
2019-05-23T08:02:50.858Z,100660.77
2019-05-23T08:05:21.221Z,100661.63
2019-05-23T08:07:50.124Z,100661.70
2019-05-23T08:10:32.504Z,100655.97
2019-05-23T08:12:48.918Z,100654.09
2019-05-23T08:15:17.728Z,100649.28
2019-05-23T08:17:46.502Z,100650.39
2019-05-23T08:20:16.043Z,100649.91
2019-05-23T08:22:45.565Z,100650.63
2019-05-23T08:25:14.340Z,100642.81
2019-05-23T08:27:43.441Z,100647.14
2019-05-23T08:30:14.355Z,100648.50
2019-05-23T08:32:42.927Z,100641.74
2019-05-23T08:35:16.201Z,100644.28
2019-05-23T08:37:42.466Z,100642.45
2019-05-23T08:40:12.923Z,100641.59
2019-05-23T08:42:41.494Z,100639.09
2019-05-23T08:45:11.563Z,100638.61
2019-05-23T08:47:40.075Z,100642.36
2019-05-23T08:50:11.304Z,100637.09
2019-05-23T08:52:40.195Z,100637.06
2019-05-23T08:55:20.383Z,100631.70
2019-05-23T08:57:49.226Z,100635.38
2019-05-23T09:00:20.182Z,100630.34
2019-05-23T09:02:49.302Z,100631.88
2019-05-23T09:05:19.083Z,100631.00
2019-05-23T09:07:48.164Z,100626.38
2019-05-23T09:10:17.937Z,100631.12
2019-05-23T09:12:47.842Z,100627.89
2019-05-23T09:15:16.842Z,100619.83
2019-05-23T09:17:53.089Z,100617.22
2019-05-23T09:20:16.934Z,100617.05
2019-05-23T09:22:45.837Z,100611.73
2019-05-23T09:25:16.432Z,100605.67
2019-05-23T09:27:45.539Z,100607.22
2019-05-23T09:30:16.039Z,100612.88
2019-05-23T09:32:44.843Z,100613.95
2019-05-23T09:35:20.822Z,100606.44
2019-05-23T09:37:45.003Z,100605.19
2019-05-23T09:40:14.316Z,100609.55
2019-05-23T09:42:43.030Z,100605.74
2019-05-23T09:45:11.904Z,100605.27
2019-05-23T09:47:40.693Z,100609.72
2019-05-23T09:50:11.820Z,100603.21
2019-05-23T09:52:40.411Z,100600.75
2019-05-23T09:55:09.221Z,100594.52
2019-05-23T09:57:37.857Z,100594.85
2019-05-23T10:00:09.367Z,100590.03
2019-05-23T10:02:37.966Z,100594.29
2019-05-23T10:05:12.378Z,100591.16
2019-05-23T10:07:40.984Z,100587.21
2019-05-23T10:10:11.741Z,100585.16
2019-05-23T10:12:40.310Z,100592.03
2019-05-23T10:15:11.754Z,100582.72
2019-05-23T10:17:40.321Z,100577.23
2019-05-23T10:20:09.826Z,100583.98
2019-05-23T10:22:38.266Z,100575.98
2019-05-23T10:25:07.951Z,100578.98
2019-05-23T10:27:36.430Z,100574.41
2019-05-23T10:30:10.765Z,100570.42
2019-05-23T10:32:39.293Z,100574.97
2019-05-23T10:35:09.480Z,100573.25
2019-05-23T10:37:38.227Z,100570.70
2019-05-23T10:40:08.475Z,100560.39
2019-05-23T10:42:38.093Z,100562.13
2019-05-23T10:45:10.026Z,100559.09
2019-05-23T10:47:38.906Z,100554.27
2019-05-23T10:50:10.114Z,100552.20
2019-05-23T10:52:38.836Z,100549.39
2019-05-23T10:55:07.658Z,100543.92
2019-05-23T10:57:36.579Z,100548.63
2019-05-23T11:00:10.239Z,100540.88
2019-05-23T11:02:39.718Z,100541.69
2019-05-23T11:05:13.350Z,100533.75
2019-05-23T11:07:41.378Z,100529.42
2019-05-23T11:10:10.837Z,100532.55
2019-05-23T11:12:39.566Z,100525.89
2019-05-23T11:15:08.343Z,100525.25
2019-05-23T11:17:37.301Z,100523.42
2019-05-23T11:20:08.602Z,100522.05
2019-05-23T11:22:37.126Z,100519.69
2019-05-23T11:25:07.879Z,100512.19
2019-05-23T11:27:37.104Z,100512.41
2019-05-23T11:30:13.733Z,100507.11
2019-05-23T11:32:42.285Z,100509.34
2019-05-23T11:35:11.169Z,100512.27
2019-05-23T11:37:41.867Z,100514.77
2019-05-23T11:40:10.511Z,100503.31
2019-05-23T11:42:39.127Z,100507.36
2019-05-23T11:45:08.604Z,100504.16
2019-05-23T11:47:37.579Z,100502.33
2019-05-23T11:50:07.055Z,100496.52
2019-05-23T11:52:35.640Z,100489.83
2019-05-23T11:55:06.500Z,100484.03
2019-05-23T11:57:37.760Z,100485.77
2019-05-23T12:00:11.318Z,100477.87
2019-05-23T12:02:44.092Z,100475.61
2019-05-23T12:05:14.819Z,100476.45
2019-05-23T12:07:43.344Z,100476.97
2019-05-23T12:10:12.114Z,100471.37
2019-05-23T12:12:40.713Z,100474.66
2019-05-23T12:15:12.723Z,100471.86
2019-05-23T12:17:41.876Z,100470.92
2019-05-23T12:20:10.806Z,100469.30
2019-05-23T12:22:40.162Z,100458.72
2019-05-23T12:25:22.023Z,100465.17
2019-05-23T12:27:40.287Z,100462.55
2019-05-23T12:30:11.994Z,100456.66
2019-05-23T12:32:40.687Z,100458.05
2019-05-23T12:35:11.844Z,100456.58
2019-05-23T12:37:39.838Z,100453.75
2019-05-23T12:40:10.299Z,100452.50
2019-05-23T12:42:38.742Z,100446.63
2019-05-23T12:45:10.602Z,100449.07
2019-05-23T12:47:40.773Z,100446.73
2019-05-23T12:50:11.300Z,100450.58
2019-05-23T12:52:39.864Z,100445.57
2019-05-23T12:55:08.558Z,100439.38
2019-05-23T12:57:37.300Z,100447.09
2019-05-23T13:00:09.448Z,100435.67
2019-05-23T13:02:38.228Z,100442.95
2019-05-23T13:05:09.194Z,100433.75
2019-05-23T13:07:37.743Z,100427.33
2019-05-23T13:10:06.943Z,100429.59
2019-05-23T13:12:35.424Z,100427.23
2019-05-23T13:15:05.744Z,100423.75
2019-05-23T13:17:34.290Z,100428.60
2019-05-23T13:20:03.272Z,100430.42
2019-05-23T13:22:32.104Z,100424.04
2019-05-23T13:25:00.840Z,100426.31
2019-05-23T13:27:29.571Z,100423.48
2019-05-23T13:29:58.141Z,100416.73
2019-05-23T13:32:26.922Z,100412.09
2019-05-23T13:34:55.514Z,100412.15
2019-05-23T13:37:23.967Z,100409.94
2019-05-23T13:39:52.647Z,100405.08
2019-05-23T13:42:24.391Z,100405.26
2019-05-23T13:44:53.221Z,100398.84
2019-05-23T13:47:21.933Z,100398.61
2019-05-23T13:49:52.174Z,100402.20
2019-05-23T13:52:20.783Z,100406.27
2019-05-23T13:54:49.649Z,100398.37
2019-05-23T13:57:18.333Z,100387.52
2019-05-23T13:59:47.186Z,100387.70
2019-05-23T14:02:15.667Z,100386.81
2019-05-23T14:04:44.472Z,100381.73
2019-05-23T14:07:13.208Z,100375.72
2019-05-23T14:09:41.996Z,100374.17
2019-05-23T14:12:26.000Z,100371.38
2019-05-23T14:14:40.979Z,100376.41
2019-05-23T14:17:11.292Z,100367.31
2019-05-23T14:19:40.107Z,100363.89
2019-05-23T14:22:08.630Z,100354.71
2019-05-23T14:24:38.173Z,100353.48
2019-05-23T14:27:08.426Z,100356.44
2019-05-23T14:29:37.203Z,100356.69
2019-05-23T14:32:22.697Z,100360.39
2019-05-23T14:34:52.860Z,100354.44
2019-05-23T14:37:34.745Z,100349.92
2019-05-23T14:40:05.108Z,100355.88
2019-05-23T14:42:53.608Z,100352.73
2019-05-23T14:45:35.980Z,100355.27
2019-05-23T14:48:15.502Z,100349.91
2019-05-23T14:50:55.045Z,100341.78
2019-05-23T14:53:25.472Z,100343.25
2019-05-23T14:55:54.042Z,100343.78
2019-05-23T14:58:22.921Z,100344.45
2019-05-23T15:00:52.847Z,100338.82
2019-05-23T15:03:21.624Z,100338.32
2019-05-23T15:05:50.269Z,100338.05
2019-05-23T15:08:19.140Z,100337.67
2019-05-23T15:10:47.901Z,100331.09
2019-05-23T15:13:16.696Z,100327.48
2019-05-23T15:15:45.138Z,100323.38
2019-05-23T15:18:13.571Z,100321.91
2019-05-23T15:20:42.170Z,100323.55
2019-05-23T15:23:10.609Z,100312.52
2019-05-23T15:25:39.131Z,100311.55
2019-05-23T15:28:07.941Z,100314.17
2019-05-23T15:30:36.519Z,100313.76
2019-05-23T15:33:05.365Z,100305.26
2019-05-23T15:35:34.724Z,100309.92
2019-05-23T15:38:03.419Z,100302.56
2019-05-23T15:40:32.317Z,100309.47
2019-05-23T15:43:00.777Z,100309.20
2019-05-23T15:45:29.647Z,100304.88
2019-05-23T15:47:58.232Z,100307.57
2019-05-23T15:50:28.746Z,100299.46
2019-05-23T15:53:04.827Z,100303.80
2019-05-23T15:55:35.061Z,100299.60
2019-05-23T15:58:05.593Z,100293.44
2019-05-23T16:00:52.191Z,100291.48
2019-05-23T16:03:40.543Z,100292.28
2019-05-23T16:06:10.647Z,100290.73
2019-05-23T16:08:39.276Z,100293.83
2019-05-23T16:11:07.937Z,100287.38
2019-05-23T16:13:36.392Z,100281.61
2019-05-23T16:16:05.165Z,100284.07
2019-05-23T16:18:33.863Z,100281.66
2019-05-23T16:21:02.681Z,100278.83
2019-05-23T16:23:31.190Z,100285.76
2019-05-23T16:26:00.466Z,100284.91
2019-05-23T16:28:28.940Z,100283.28
2019-05-23T16:30:58.086Z,100282.95
2019-05-23T16:33:26.721Z,100284.63
2019-05-23T16:35:55.312Z,100281.20
2019-05-23T16:38:23.751Z,100281.69
2019-05-23T16:40:52.317Z,100275.47
2019-05-23T16:43:20.903Z,100275.28
2019-05-23T16:45:49.358Z,100270.34
2019-05-23T16:48:18.060Z,100276.06
2019-05-23T16:50:46.516Z,100269.60
2019-05-23T16:53:15.216Z,100269.57
2019-05-23T16:55:57.339Z,100271.08
2019-05-23T16:58:45.485Z,100269.97
2019-05-23T17:01:24.239Z,100268.19
2019-05-23T17:03:57.339Z,100266.25
2019-05-23T17:06:30.845Z,100255.88
2019-05-23T17:09:15.734Z,100262.23
2019-05-23T17:11:57.861Z,100260.95
2019-05-23T17:14:37.218Z,100257.59
2019-05-23T17:17:07.328Z,100252.83
2019-05-23T17:19:43.724Z,100252.42
2019-05-23T17:22:23.142Z,100252.91
2019-05-23T17:24:55.952Z,100252.19
2019-05-23T17:27:34.548Z,100253.42
2019-05-23T17:30:17.546Z,100250.11
2019-05-23T17:32:46.248Z,100245.28
2019-05-23T17:35:14.748Z,100246.59
2019-05-23T17:37:43.525Z,100246.22
2019-05-23T17:40:24.355Z,100252.31
2019-05-23T17:42:42.350Z,100250.59
2019-05-23T17:45:13.994Z,100248.94
2019-05-23T17:47:41.954Z,100243.34
2019-05-23T17:50:10.814Z,100245.98
2019-05-23T17:52:39.583Z,100247.63
2019-05-23T17:55:08.615Z,100241.99
2019-05-23T17:57:37.484Z,100239.84
2019-05-23T18:00:08.804Z,100238.30
2019-05-23T18:02:37.272Z,100243.16
2019-05-23T18:05:07.354Z,100241.42
2019-05-23T18:07:36.839Z,100246.89
2019-05-23T18:10:07.591Z,100239.89
2019-05-23T18:12:36.592Z,100238.09
2019-05-23T18:15:08.617Z,100237.27
2019-05-23T18:17:37.629Z,100235.82
2019-05-23T18:20:08.165Z,100237.36
2019-05-23T18:22:37.138Z,100235.96
2019-05-23T18:25:08.388Z,100240.39
2019-05-23T18:27:36.984Z,100238.87
2019-05-23T18:30:08.495Z,100236.05
2019-05-23T18:32:37.308Z,100236.18
2019-05-23T18:35:10.442Z,100238.10
2019-05-23T18:37:39.323Z,100242.64
2019-05-23T18:40:08.564Z,100230.41
2019-05-23T18:42:39.365Z,100236.04
2019-05-23T18:45:09.463Z,100237.88
2019-05-23T18:47:39.843Z,100236.49
2019-05-23T18:50:08.958Z,100234.72
2019-05-23T18:52:38.251Z,100235.48
2019-05-23T18:55:07.715Z,100228.88
2019-05-23T18:57:37.016Z,100230.69
2019-05-23T19:00:08.178Z,100230.86
2019-05-23T19:02:37.041Z,100231.06
2019-05-23T19:05:10.075Z,100225.20
2019-05-23T19:07:39.318Z,100234.35
2019-05-23T19:10:09.155Z,100237.53
2019-05-23T19:12:37.863Z,100246.08
2019-05-23T19:15:09.491Z,100248.45
2019-05-23T19:17:38.552Z,100245.48
2019-05-23T19:20:08.976Z,100244.91
2019-05-23T19:22:39.085Z,100257.37
2019-05-23T19:25:10.052Z,100255.77
2019-05-23T19:27:39.924Z,100254.41
2019-05-23T19:30:10.916Z,100255.33
2019-05-23T19:32:42.214Z,100256.09
2019-05-23T19:35:10.894Z,100254.20
2019-05-23T19:37:39.901Z,100255.27
2019-05-23T19:40:09.530Z,100256.02
2019-05-23T19:42:38.434Z,100251.77
2019-05-23T19:45:08.242Z,100255.66
2019-05-23T19:47:38.301Z,100258.41
2019-05-23T19:50:08.439Z,100253.50
2019-05-23T19:52:37.078Z,100255.88
2019-05-23T19:55:07.670Z,100255.50
2019-05-23T19:57:37.368Z,100252.03
2019-05-23T20:00:11.148Z,100256.17
2019-05-23T20:02:44.080Z,100249.19
2019-05-23T20:05:29.813Z,100254.70
2019-05-23T20:07:58.538Z,100252.53
2019-05-23T20:10:28.335Z,100256.67
2019-05-23T20:12:56.951Z,100256.17
2019-05-23T20:15:25.848Z,100258.70
2019-05-23T20:17:54.524Z,100257.09
2019-05-23T20:20:23.156Z,100259.55
2019-05-23T20:22:51.758Z,100258.12
2019-05-23T20:25:20.749Z,100254.34
2019-05-23T20:27:49.367Z,100251.91
2019-05-23T20:30:38.137Z,100254.50
2019-05-23T20:33:06.723Z,100261.37
2019-05-23T20:35:35.262Z,100256.78
2019-05-23T20:38:04.270Z,100265.13
2019-05-23T20:40:32.956Z,100265.39
2019-05-23T20:43:02.665Z,100267.48
2019-05-23T20:45:31.320Z,100263.90
2019-05-23T20:47:59.758Z,100267.87
2019-05-23T20:50:28.196Z,100262.68
2019-05-23T20:52:56.831Z,100265.58
2019-05-23T20:55:25.724Z,100272.88
2019-05-23T20:57:54.265Z,100268.53
2019-05-23T21:00:34.218Z,100275.78
2019-05-23T21:03:03.552Z,100267.77
2019-05-23T21:05:32.503Z,100274.06
2019-05-23T21:08:00.993Z,100271.37
2019-05-23T21:10:44.987Z,100273.88
2019-05-23T21:13:13.634Z,100273.50
2019-05-23T21:15:42.141Z,100268.62
2019-05-23T21:18:11.094Z,100274.19
2019-05-23T21:20:39.833Z,100276.76
2019-05-23T21:23:08.513Z,100277.91
2019-05-23T21:25:38.669Z,100276.61
2019-05-23T21:28:07.325Z,100276.10
2019-05-23T21:30:36.003Z,100281.08
2019-05-23T21:33:05.571Z,100278.51
2019-05-23T21:35:34.319Z,100276.02
2019-05-23T21:38:02.971Z,100272.92
2019-05-23T21:40:37.361Z,100273.75
2019-05-23T21:43:06.571Z,100271.14
2019-05-23T21:45:35.316Z,100275.41
2019-05-23T21:48:04.244Z,100276.41
2019-05-23T21:50:33.062Z,100269.66
2019-05-23T21:53:01.960Z,100273.93
2019-05-23T21:55:43.812Z,100265.58
2019-05-23T21:58:13.922Z,100272.45
2019-05-23T22:01:08.349Z,100264.21
2019-05-23T22:03:56.235Z,100270.25
2019-05-23T22:06:29.207Z,100271.39
2019-05-23T22:08:59.455Z,100268.72
2019-05-23T22:11:28.064Z,100265.67
2019-05-23T22:13:57.317Z,100266.98
2019-05-23T22:16:26.387Z,100260.13
2019-05-23T22:18:55.014Z,100264.13
2019-05-23T22:21:23.630Z,100264.63
2019-05-23T22:23:52.082Z,100258.38
2019-05-23T22:26:20.652Z,100257.86
2019-05-23T22:28:49.122Z,100260.25
2019-05-23T22:31:18.099Z,100263.95
2019-05-23T22:33:54.288Z,100260.19
2019-05-23T22:36:23.996Z,100255.95
2019-05-23T22:38:52.519Z,100255.61
2019-05-23T22:41:21.114Z,100256.92
2019-05-23T22:43:49.623Z,100258.24
2019-05-23T22:46:20.046Z,100259.39
2019-05-23T22:48:48.587Z,100258.65
2019-05-23T22:51:17.170Z,100252.66
2019-05-23T22:53:45.692Z,100255.80
2019-05-23T22:56:14.330Z,100259.33
2019-05-23T22:58:43.009Z,100257.06
2019-05-23T23:01:11.512Z,100260.03
2019-05-23T23:03:39.974Z,100259.16
2019-05-23T23:06:08.475Z,100258.44
2019-05-23T23:08:37.285Z,100258.23
2019-05-23T23:11:05.922Z,100261.08
2019-05-23T23:13:38.535Z,100257.17
2019-05-23T23:16:05.180Z,100264.94
2019-05-23T23:18:33.618Z,100265.91
2019-05-23T23:21:02.128Z,100266.12
2019-05-23T23:23:30.571Z,100262.48
2019-05-23T23:25:59.115Z,100261.13
2019-05-23T23:28:27.553Z,100261.53
2019-05-23T23:30:56.064Z,100257.62
2019-05-23T23:33:24.709Z,100259.91
2019-05-23T23:35:53.695Z,100262.31
2019-05-23T23:38:22.129Z,100261.56
2019-05-23T23:40:50.603Z,100253.50
2019-05-23T23:43:19.047Z,100262.35
2019-05-23T23:46:05.396Z,100256.34
2019-05-23T23:48:52.105Z,100256.30
2019-05-23T23:51:38.265Z,100254.34
2019-05-23T23:54:24.181Z,100250.22
2019-05-23T23:57:10.720Z,100244.08
2019-05-23T23:59:38.502Z,100242.71
